Aérodrome :
LOGIN :

S'inscrire | Disclaimer

   EN    FR    IT 

 










Légende :    VFR   VFR Marginal   IFR   IFR Intensif   IFR Très Intensif
Visi : 
Plafond : 
>= 8 km
>= 3000ft
5 à 8 km
1000 à 3000 ft
1500m à 5 km
500 à 1000 ft
800 à 1500m
200 à 500 ft
< 800m
< 200 ft
Symboles :   Orages  Brouillard  Fortes neiges  Fortes précipitations  Vent > 20 kt
SIGMETs :   Divers  Orages  Givrage  Turbulence  Onde Orograph.  Cendres Volcan.






- Altitude de l'aérodrome : 297 ft
- Code IATA : UIP


LFRQ - Quimper Pluguffan

DERNIER METAR :
  • 161300Z AUTO 29010KT 260V330 9999 FEW033 SCT240 20/13 Q1017 NOSIG

METARs EXPIRÉS :
  • 161230Z AUTO 26008KT 220V300 9999 SCT031 SCT054 20/14 Q1017 NOSIG
  • 161200Z AUTO 28009KT 250V310 9999 FEW026 BKN050 20/14 Q1017 NOSIG
  • 161130Z AUTO 28009KT 9999 FEW026 BKN046 19/14 Q1017 NOSIG
  • 161100Z AUTO 31011KT 9999 SCT029 BKN037 BKN044 19/13 Q1016 TEMPO 4000 -SHRA BKN009
  • 161030Z AUTO 28008KT 250V310 9999 FEW027 BKN036 BKN046 19/14 Q1016 TEMPO 4000 -SHRA BKN009
  • 161000Z AUTO 27007KT 230V300 9999 SCT017 SCT024 BKN039 18/15 Q1016 TEMPO 4000 -SHRA BKN009
  • 160930Z AUTO 25007KT 9999 SCT014 BKN020 BKN031 18/15 Q1015 TEMPO 4000 -SHRA BKN009
  • 160900Z AUTO 27008KT 240V310 9999 BKN014 BKN030 OVC049 19/15 Q1015 TEMPO 4000 -SHRA BKN009
  • 160830Z AUTO 26007KT 230V300 9999 FEW010 BKN014 BKN037 17/15 Q1015 TEMPO 4000 -SHRA BKN009

TAF TAF LFRQ
Valide du 16 à 12h jusqu'au 17 à 12h UTC


161100Z 1612/1712 27010KT 9999 BKN025
BECMG 1620/1623 VRB04KT
TEMPO 1623/1708 3000 BR BKN014
PROB40
TEMPO 1700/1706 0500 FG



MET'MAP, la Météo Aéronautique d'un coup d'oeil ! - Copyright ORBIFLY Décembre 2007 - Disclaimer

ORBIFLY MET'MAP TEAM :

Programmation & Développement : Alexandra Zaïnal
Sur une idée originale de : Baudouin d'Aumeries
Soutien technique & logistique : Manuel Goepfert
Assistance : Marc-Olivier Méhu




SOURCES & CREDITS :

   NOAA